createdAt,value
2019-03-04T00:02:08.436Z,0.50
2019-03-04T00:07:13.933Z,1.30
2019-03-04T00:12:19.103Z,1.10
2019-03-04T00:17:25.317Z,0.60
2019-03-04T00:22:30.540Z,0.70
2019-03-04T00:27:35.798Z,0.60
2019-03-04T00:32:41.134Z,0.90
2019-03-04T00:37:46.442Z,0.80
2019-03-04T00:42:51.724Z,0.40
2019-03-04T00:47:57.048Z,0.90
2019-03-04T00:53:02.263Z,0.80
2019-03-04T00:58:07.512Z,0.77
2019-03-04T01:03:12.972Z,0.63
2019-03-04T01:08:18.206Z,0.50
2019-03-04T01:13:24.757Z,1.10
2019-03-04T01:18:30.018Z,0.70
2019-03-04T01:23:35.265Z,0.73
2019-03-04T01:28:40.535Z,0.97
2019-03-04T01:33:45.758Z,0.80
2019-03-04T01:38:51.169Z,0.70
2019-03-04T01:43:56.387Z,0.85
2019-03-04T01:49:01.634Z,0.50
2019-03-04T01:54:06.928Z,0.90
2019-03-04T01:59:12.101Z,1.10
2019-03-04T02:04:17.513Z,0.90
2019-03-04T02:09:23.402Z,1.00
2019-03-04T02:14:28.652Z,1.20
2019-03-04T02:19:33.932Z,0.60
2019-03-04T02:24:39.160Z,1.00
2019-03-04T02:29:44.473Z,1.03
2019-03-04T02:34:49.760Z,0.70
2019-03-04T02:39:55.144Z,0.62
2019-03-04T02:45:00.407Z,0.90
2019-03-04T02:50:06.688Z,1.10
2019-03-04T02:55:11.938Z,0.90
2019-03-04T03:00:17.987Z,0.83
2019-03-04T03:05:23.285Z,0.73
2019-03-04T03:10:28.464Z,0.70
2019-03-04T03:15:33.663Z,0.57
2019-03-04T03:20:38.862Z,0.65
2019-03-04T03:25:44.118Z,0.60
2019-03-04T03:30:49.322Z,0.87
2019-03-04T03:35:54.619Z,0.80
2019-03-04T03:40:59.928Z,0.80
2019-03-04T03:46:05.294Z,0.80
2019-03-04T03:51:10.619Z,0.83
2019-03-04T03:56:15.849Z,1.20
2019-03-04T04:01:21.268Z,0.80
2019-03-04T04:06:26.545Z,0.83
2019-03-04T04:11:31.856Z,1.37
2019-03-04T04:16:37.096Z,1.35
2019-03-04T04:21:42.466Z,0.93
2019-03-04T04:26:47.768Z,1.07
2019-03-04T04:31:53.029Z,0.87
2019-03-04T04:36:58.245Z,1.30
2019-03-04T04:42:03.693Z,1.33
2019-03-04T04:47:10.603Z,1.33
2019-03-04T04:52:15.794Z,0.83
2019-03-04T04:57:21.054Z,1.00
2019-03-04T05:02:26.363Z,0.90
2019-03-04T05:07:31.671Z,1.02
2019-03-04T05:12:36.986Z,0.70
2019-03-04T05:17:42.357Z,0.68
2019-03-04T05:22:47.648Z,0.60
2019-03-04T05:27:52.923Z,1.10
2019-03-04T05:32:58.243Z,0.90
2019-03-04T05:38:03.733Z,0.73
2019-03-04T05:43:09.011Z,0.57
2019-03-04T05:48:14.287Z,0.53
2019-03-04T05:53:19.572Z,0.83
2019-03-04T05:58:24.798Z,0.80
2019-03-04T06:03:30.148Z,0.70
2019-03-04T06:08:35.497Z,0.20
2019-03-04T06:13:40.663Z,0.90
2019-03-04T06:18:45.933Z,0.30
2019-03-04T06:23:51.188Z,0.20
2019-03-04T06:28:56.348Z,0.30
2019-03-04T06:34:01.714Z,0.33
2019-03-04T06:39:08.632Z,0.30
2019-03-04T06:44:13.818Z,0.77
2019-03-04T06:49:19.126Z,0.40
2019-03-04T06:54:38.144Z,0.60
2019-03-04T07:00:12.193Z,0.55
2019-03-04T07:05:35.377Z,0.20
2019-03-04T07:10:40.738Z,0.70
2019-03-04T07:15:46.271Z,0.43
2019-03-04T07:20:51.599Z,0.30
2019-03-04T07:25:56.867Z,0.53
2019-03-04T07:31:02.294Z,0.47
2019-03-04T07:36:08.160Z,0.30
2019-03-04T07:41:13.605Z,0.90
2019-03-04T07:46:19.027Z,1.00
2019-03-04T07:51:24.257Z,0.30
2019-03-04T07:56:29.629Z,0.53
2019-03-04T08:01:34.958Z,1.02
2019-03-04T08:06:40.383Z,0.60
2019-03-04T08:12:15.237Z,0.80
2019-03-04T08:17:20.500Z,1.23
2019-03-04T08:22:26.086Z,1.13
2019-03-04T08:27:31.418Z,1.20
2019-03-04T08:32:36.657Z,0.40
2019-03-04T08:37:42.107Z,0.98
2019-03-04T08:42:47.363Z,1.13
2019-03-04T08:47:55.677Z,1.90
2019-03-04T08:53:00.877Z,1.87
2019-03-04T08:58:06.237Z,1.77
2019-03-04T09:03:11.557Z,1.80
2019-03-04T09:08:16.885Z,1.40
2019-03-04T09:13:22.387Z,1.70
2019-03-04T09:18:27.741Z,0.73
2019-03-04T09:23:32.998Z,2.43
2019-03-04T09:28:38.484Z,1.72
2019-03-04T09:33:43.833Z,1.70
2019-03-04T09:38:49.135Z,1.70
2019-03-04T09:43:54.322Z,2.00
2019-03-04T09:48:59.647Z,1.20
2019-03-04T09:54:04.994Z,1.63
2019-03-04T09:59:10.418Z,2.25
2019-03-04T10:04:26.743Z,2.10
2019-03-04T10:09:46.288Z,1.93
2019-03-04T10:15:08.338Z,2.43
2019-03-04T10:20:36.298Z,2.00
2019-03-04T10:25:57.102Z,2.10
2019-03-04T10:31:20.088Z,2.00
2019-03-04T10:36:45.297Z,1.77
2019-03-04T10:42:10.749Z,2.23
2019-03-04T10:47:16.168Z,2.17
2019-03-04T10:52:22.525Z,2.00
2019-03-04T10:57:27.958Z,2.20
2019-03-04T11:02:33.203Z,1.40
2019-03-04T11:07:39.523Z,1.30
2019-03-04T11:12:44.687Z,1.90
2019-03-04T11:17:50.102Z,1.40
2019-03-04T11:22:55.501Z,2.63
2019-03-04T11:28:00.929Z,2.17
2019-03-04T11:33:06.433Z,2.40
2019-03-04T11:38:32.885Z,2.57
2019-03-04T11:43:38.210Z,1.92
2019-03-04T11:48:43.609Z,2.00
2019-03-04T11:53:48.873Z,1.40
2019-03-04T11:58:57.127Z,2.00
2019-03-04T12:04:02.558Z,3.13
2019-03-04T12:09:14.273Z,2.47
2019-03-04T12:14:19.509Z,3.10
2019-03-04T12:19:24.838Z,3.00
2019-03-04T12:24:30.211Z,2.92
2019-03-04T12:29:36.771Z,2.87
2019-03-04T12:34:42.249Z,2.03
2019-03-04T12:39:47.587Z,2.17
2019-03-04T12:44:54.814Z,2.30
2019-03-04T12:50:00.347Z,2.20
2019-03-04T12:55:07.024Z,1.87
2019-03-04T13:00:15.130Z,2.90
2019-03-04T13:05:20.679Z,3.87
2019-03-04T13:10:26.081Z,2.87
2019-03-04T13:15:31.460Z,2.37
2019-03-04T13:20:39.583Z,2.87
2019-03-04T13:25:44.891Z,3.13
2019-03-04T13:30:50.372Z,2.77
2019-03-04T13:35:55.616Z,2.03
2019-03-04T13:41:01.584Z,2.53
2019-03-04T13:46:07.071Z,2.73
2019-03-04T13:51:12.372Z,2.70
2019-03-04T13:56:17.757Z,3.30
2019-03-04T14:01:24.556Z,3.47
2019-03-04T14:06:30.110Z,2.23
2019-03-04T14:11:35.622Z,1.90
2019-03-04T14:16:41.040Z,1.97
2019-03-04T14:21:46.449Z,1.43
2019-03-04T14:26:51.854Z,1.75
2019-03-04T14:31:57.327Z,0.93
2019-03-04T14:37:03.388Z,1.77
2019-03-04T14:42:08.776Z,1.63
2019-03-04T14:47:14.025Z,1.70
2019-03-04T14:52:19.248Z,0.90
2019-03-04T14:57:24.608Z,1.40
2019-03-04T15:02:29.906Z,1.23
2019-03-04T15:07:36.675Z,1.37
2019-03-04T15:12:42.371Z,1.57
2019-03-04T15:17:47.800Z,1.40
2019-03-04T15:22:53.316Z,1.77
2019-03-04T15:28:10.495Z,1.30
2019-03-04T15:33:18.428Z,1.40
2019-03-04T15:38:23.122Z,1.27
2019-03-04T15:43:28.890Z,1.30
2019-03-04T15:48:34.485Z,1.40
2019-03-04T15:53:39.812Z,1.17
2019-03-04T15:58:45.035Z,1.73
2019-03-04T16:03:50.226Z,1.63
2019-03-04T16:08:55.501Z,1.77
2019-03-04T16:14:00.781Z,2.77
2019-03-04T16:19:05.972Z,1.67
2019-03-04T16:24:11.256Z,2.03
2019-03-04T16:29:16.558Z,2.40
2019-03-04T16:34:21.816Z,2.43
2019-03-04T16:39:27.120Z,1.90
2019-03-04T16:44:32.435Z,2.20
2019-03-04T16:49:40.803Z,1.65
2019-03-04T16:54:48.808Z,2.20
2019-03-04T16:59:54.266Z,1.70
2019-03-04T17:04:59.746Z,2.07
2019-03-04T17:10:06.230Z,1.63
2019-03-04T17:15:13.951Z,1.73
2019-03-04T17:20:19.801Z,3.83
2019-03-04T17:25:25.297Z,1.47
2019-03-04T17:30:30.566Z,1.90
2019-03-04T17:35:35.920Z,3.55
2019-03-04T17:40:41.311Z,2.08
2019-03-04T17:45:46.567Z,2.87
2019-03-04T17:50:51.947Z,2.63
2019-03-04T17:55:57.260Z,0.60
2019-03-04T18:01:03.526Z,0.80
2019-03-04T18:06:08.709Z,1.03
2019-03-04T18:11:13.902Z,1.93
2019-03-04T18:16:19.198Z,1.07
2019-03-04T18:21:24.401Z,1.60
2019-03-04T18:26:34.438Z,2.00
2019-03-04T18:31:46.901Z,1.80
2019-03-04T18:37:08.067Z,1.83
2019-03-04T18:42:32.612Z,1.80
2019-03-04T18:47:49.106Z,1.62
2019-03-04T18:52:54.636Z,1.80
2019-03-04T18:58:00.051Z,2.80
2019-03-04T19:03:05.386Z,2.30
2019-03-04T19:08:10.656Z,2.20
2019-03-04T19:13:15.872Z,2.10
2019-03-04T19:18:21.276Z,2.67
2019-03-04T19:23:26.471Z,3.43
2019-03-04T19:28:31.780Z,2.15
2019-03-04T19:33:37.166Z,2.27
2019-03-04T19:38:42.424Z,1.63
2019-03-04T19:43:47.774Z,2.37
2019-03-04T19:48:54.557Z,2.47
2019-03-04T19:53:59.990Z,2.70
2019-03-04T19:59:05.180Z,2.40
2019-03-04T20:04:10.441Z,2.43
2019-03-04T20:09:15.759Z,2.47
2019-03-04T20:14:21.239Z,1.87
2019-03-04T20:19:26.561Z,3.10
2019-03-04T20:24:31.897Z,1.63
2019-03-04T20:29:38.468Z,0.80
2019-03-04T20:34:43.798Z,0.93
2019-03-04T20:39:49.105Z,2.10
2019-03-04T20:44:54.466Z,1.00
2019-03-04T20:49:59.730Z,1.20
2019-03-04T20:55:05.705Z,0.80
2019-03-04T21:00:14.472Z,1.40
2019-03-04T21:05:19.985Z,1.60
2019-03-04T21:10:25.491Z,1.37
2019-03-04T21:15:33.977Z,1.50
2019-03-04T21:20:39.124Z,1.43
2019-03-04T21:25:51.495Z,1.40
2019-03-04T21:31:13.596Z,1.00
2019-03-04T21:36:38.196Z,0.90
2019-03-04T21:41:53.740Z,0.60
2019-03-04T21:47:05.762Z,1.10
2019-03-04T21:52:23.259Z,0.67
2019-03-04T21:57:35.451Z,1.40
2019-03-04T22:02:53.518Z,1.47
2019-03-04T22:07:58.737Z,1.73
2019-03-04T22:13:03.998Z,1.77
2019-03-04T22:18:09.889Z,1.20
2019-03-04T22:23:15.165Z,1.77
2019-03-04T22:28:20.436Z,2.10
2019-03-04T22:33:25.586Z,2.13
2019-03-04T22:38:31.011Z,1.30
2019-03-04T22:43:36.337Z,2.30
2019-03-04T22:48:41.704Z,1.92
2019-03-04T22:53:47.023Z,2.33
2019-03-04T22:58:52.410Z,2.70
2019-03-04T23:04:06.850Z,2.23
2019-03-04T23:09:13.911Z,2.50
2019-03-04T23:14:23.991Z,1.23
2019-03-04T23:19:29.351Z,1.67
2019-03-04T23:24:34.650Z,2.20
2019-03-04T23:29:39.971Z,1.67
2019-03-04T23:34:45.305Z,1.93
2019-03-04T23:39:50.750Z,2.43
2019-03-04T23:44:56.210Z,1.77
2019-03-04T23:50:12.871Z,1.77
2019-03-04T23:55:18.252Z,2.40
